sensor_id;sensor_type;location;lat;lon;timestamp;P1;P2;P0
73623;PMS5003;61921;53.226;-1.296;2023-07-28T00:02:06;6;5;
73623;PMS5003;61921;53.226;-1.296;2023-07-28T00:04:33;6;4;
73623;PMS5003;61921;53.226;-1.296;2023-07-28T00:06:57;4;4;
73623;PMS5003;61921;53.226;-1.296;2023-07-28T00:09:22;4;4;
73623;PMS5003;61921;53.226;-1.296;2023-07-28T00:11:47;5;5;
73623;PMS5003;61921;53.226;-1.296;2023-07-28T00:14:12;6;6;
73623;PMS5003;61921;53.226;-1.296;2023-07-28T00:16:38;4;4;
73623;PMS5003;61921;53.226;-1.296;2023-07-28T00:19:03;5;5;
73623;PMS5003;61921;53.226;-1.296;2023-07-28T00:21:28;6;4;
73623;PMS5003;61921;53.226;-1.296;2023-07-28T00:23:53;4;4;
73623;PMS5003;61921;53.226;-1.296;2023-07-28T00:26:18;9;7;
73623;PMS5003;61921;53.226;-1.296;2023-07-28T00:28:44;6;6;
73623;PMS5003;61921;53.226;-1.296;2023-07-28T00:31:09;8;6;
73623;PMS5003;61921;53.226;-1.296;2023-07-28T00:33:34;6;6;
73623;PMS5003;61921;53.226;-1.296;2023-07-28T00:35:59;6;6;
73623;PMS5003;61921;53.226;-1.296;2023-07-28T00:38:24;6;4;
73623;PMS5003;61921;53.226;-1.296;2023-07-28T00:40:49;5;5;
73623;PMS5003;61921;53.226;-1.296;2023-07-28T00:43:15;6;6;
73623;PMS5003;61921;53.226;-1.296;2023-07-28T00:45:40;6;6;
73623;PMS5003;61921;53.226;-1.296;2023-07-28T00:48:10;6;6;
73623;PMS5003;61921;53.226;-1.296;2023-07-28T00:50:31;4;4;
73623;PMS5003;61921;53.226;-1.296;2023-07-28T00:52:57;7;7;
73623;PMS5003;61921;53.226;-1.296;2023-07-28T00:55:23;6;6;
73623;PMS5003;61921;53.226;-1.296;2023-07-28T00:57:48;7;7;
73623;PMS5003;61921;53.226;-1.296;2023-07-28T01:00:13;5;5;
73623;PMS5003;61921;53.226;-1.296;2023-07-28T01:02:38;6;6;
73623;PMS5003;61921;53.226;-1.296;2023-07-28T01:05:03;8;6;
73623;PMS5003;61921;53.226;-1.296;2023-07-28T01:07:30;7;6;
73623;PMS5003;61921;53.226;-1.296;2023-07-28T01:09:57;6;6;
73623;PMS5003;61921;53.226;-1.296;2023-07-28T01:12:19;7;6;
73623;PMS5003;61921;53.226;-1.296;2023-07-28T01:14:44;6;6;
73623;PMS5003;61921;53.226;-1.296;2023-07-28T01:17:09;5;5;
73623;PMS5003;61921;53.226;-1.296;2023-07-28T01:19:35;6;6;
73623;PMS5003;61921;53.226;-1.296;2023-07-28T01:22:06;7;6;
73623;PMS5003;61921;53.226;-1.296;2023-07-28T01:24:27;8;6;
73623;PMS5003;61921;53.226;-1.296;2023-07-28T01:26:50;9;6;
73623;PMS5003;61921;53.226;-1.296;2023-07-28T01:29:15;7;7;
73623;PMS5003;61921;53.226;-1.296;2023-07-28T01:31:40;9;8;
73623;PMS5003;61921;53.226;-1.296;2023-07-28T01:34:06;6;6;
73623;PMS5003;61921;53.226;-1.296;2023-07-28T01:36:31;7;7;
73623;PMS5003;61921;53.226;-1.296;2023-07-28T01:38:56;5;5;
73623;PMS5003;61921;53.226;-1.296;2023-07-28T01:41:22;9;8;
73623;PMS5003;61921;53.226;-1.296;2023-07-28T01:43:47;9;7;
73623;PMS5003;61921;53.226;-1.296;2023-07-28T01:46:12;8;7;
73623;PMS5003;61921;53.226;-1.296;2023-07-28T01:48:37;7;7;
73623;PMS5003;61921;53.226;-1.296;2023-07-28T01:51:02;7;7;
73623;PMS5003;61921;53.226;-1.296;2023-07-28T01:53:27;9;6;
73623;PMS5003;61921;53.226;-1.296;2023-07-28T01:55:53;5;5;
73623;PMS5003;61921;53.226;-1.296;2023-07-28T01:58:18;6;6;
73623;PMS5003;61921;53.226;-1.296;2023-07-28T02:00:43;5;5;
73623;PMS5003;61921;53.226;-1.296;2023-07-28T02:03:09;6;5;
73623;PMS5003;61921;53.226;-1.296;2023-07-28T02:05:33;5;5;
73623;PMS5003;61921;53.226;-1.296;2023-07-28T02:07:58;6;6;
73623;PMS5003;61921;53.226;-1.296;2023-07-28T02:10:23;6;6;
73623;PMS5003;61921;53.226;-1.296;2023-07-28T02:12:49;7;6;
73623;PMS5003;61921;53.226;-1.296;2023-07-28T02:15:14;8;8;
73623;PMS5003;61921;53.226;-1.296;2023-07-28T02:17:39;10;9;
73623;PMS5003;61921;53.226;-1.296;2023-07-28T02:20:05;7;5;
73623;PMS5003;61921;53.226;-1.296;2023-07-28T02:22:29;6;6;
73623;PMS5003;61921;53.226;-1.296;2023-07-28T02:24:54;8;7;
73623;PMS5003;61921;53.226;-1.296;2023-07-28T02:27:20;6;6;
73623;PMS5003;61921;53.226;-1.296;2023-07-28T02:29:45;8;7;
73623;PMS5003;61921;53.226;-1.296;2023-07-28T02:32:10;8;8;
73623;PMS5003;61921;53.226;-1.296;2023-07-28T02:34:35;8;6;
73623;PMS5003;61921;53.226;-1.296;2023-07-28T02:37:00;6;6;
73623;PMS5003;61921;53.226;-1.296;2023-07-28T02:39:25;9;7;
73623;PMS5003;61921;53.226;-1.296;2023-07-28T02:41:51;9;9;
73623;PMS5003;61921;53.226;-1.296;2023-07-28T02:44:16;8;6;
73623;PMS5003;61921;53.226;-1.296;2023-07-28T02:46:41;8;8;
73623;PMS5003;61921;53.226;-1.296;2023-07-28T02:49:06;6;5;
73623;PMS5003;61921;53.226;-1.296;2023-07-28T02:51:32;8;6;
73623;PMS5003;61921;53.226;-1.296;2023-07-28T02:53:57;8;6;
73623;PMS5003;61921;53.226;-1.296;2023-07-28T02:56:23;9;7;
73623;PMS5003;61921;53.226;-1.296;2023-07-28T02:58:48;7;7;
73623;PMS5003;61921;53.226;-1.296;2023-07-28T03:01:13;7;7;
73623;PMS5003;61921;53.226;-1.296;2023-07-28T03:03:38;7;7;
73623;PMS5003;61921;53.226;-1.296;2023-07-28T03:06:04;6;6;
73623;PMS5003;61921;53.226;-1.296;2023-07-28T03:08:29;7;7;
73623;PMS5003;61921;53.226;-1.296;2023-07-28T03:10:56;8;7;
73623;PMS5003;61921;53.226;-1.296;2023-07-28T03:13:20;6;6;
73623;PMS5003;61921;53.226;-1.296;2023-07-28T03:15:44;10;7;
73623;PMS5003;61921;53.226;-1.296;2023-07-28T03:18:10;8;8;
73623;PMS5003;61921;53.226;-1.296;2023-07-28T03:20:35;8;8;
73623;PMS5003;61921;53.226;-1.296;2023-07-28T03:23:00;9;9;
73623;PMS5003;61921;53.226;-1.296;2023-07-28T03:25:26;7;6;
73623;PMS5003;61921;53.226;-1.296;2023-07-28T03:27:51;11;9;
73623;PMS5003;61921;53.226;-1.296;2023-07-28T03:30:16;12;9;
73623;PMS5003;61921;53.226;-1.296;2023-07-28T03:32:41;7;7;
73623;PMS5003;61921;53.226;-1.296;2023-07-28T03:35:07;9;9;
73623;PMS5003;61921;53.226;-1.296;2023-07-28T03:37:31;9;9;
73623;PMS5003;61921;53.226;-1.296;2023-07-28T03:39:57;13;12;
73623;PMS5003;61921;53.226;-1.296;2023-07-28T03:42:22;10;10;
73623;PMS5003;61921;53.226;-1.296;2023-07-28T03:44:48;9;9;
73623;PMS5003;61921;53.226;-1.296;2023-07-28T03:47:13;7;7;
73623;PMS5003;61921;53.226;-1.296;2023-07-28T03:49:38;9;8;
73623;PMS5003;61921;53.226;-1.296;2023-07-28T03:52:03;11;9;
73623;PMS5003;61921;53.226;-1.296;2023-07-28T03:54:28;10;8;
73623;PMS5003;61921;53.226;-1.296;2023-07-28T03:56:53;10;10;
73623;PMS5003;61921;53.226;-1.296;2023-07-28T03:59:18;9;9;
73623;PMS5003;61921;53.226;-1.296;2023-07-28T04:01:43;8;8;
73623;PMS5003;61921;53.226;-1.296;2023-07-28T04:04:09;9;7;
73623;PMS5003;61921;53.226;-1.296;2023-07-28T04:06:39;9;9;
73623;PMS5003;61921;53.226;-1.296;2023-07-28T04:08:59;9;9;
73623;PMS5003;61921;53.226;-1.296;2023-07-28T04:11:25;11;11;
73623;PMS5003;61921;53.226;-1.296;2023-07-28T04:13:50;8;8;
73623;PMS5003;61921;53.226;-1.296;2023-07-28T04:16:15;9;9;
73623;PMS5003;61921;53.226;-1.296;2023-07-28T04:18:40;10;10;
73623;PMS5003;61921;53.226;-1.296;2023-07-28T04:21:05;8;8;
73623;PMS5003;61921;53.226;-1.296;2023-07-28T04:23:30;10;10;
73623;PMS5003;61921;53.226;-1.296;2023-07-28T04:25:56;10;9;
73623;PMS5003;61921;53.226;-1.296;2023-07-28T04:28:21;9;9;
73623;PMS5003;61921;53.226;-1.296;2023-07-28T04:30:46;11;11;
73623;PMS5003;61921;53.226;-1.296;2023-07-28T04:33:11;12;10;
73623;PMS5003;61921;53.226;-1.296;2023-07-28T04:35:36;10;9;
73623;PMS5003;61921;53.226;-1.296;2023-07-28T04:38:02;9;9;
73623;PMS5003;61921;53.226;-1.296;2023-07-28T04:40:27;12;12;
73623;PMS5003;61921;53.226;-1.296;2023-07-28T04:42:52;11;11;
73623;PMS5003;61921;53.226;-1.296;2023-07-28T04:45:18;10;9;
73623;PMS5003;61921;53.226;-1.296;2023-07-28T04:47:43;8;8;
73623;PMS5003;61921;53.226;-1.296;2023-07-28T04:50:09;11;11;
73623;PMS5003;61921;53.226;-1.296;2023-07-28T04:52:34;10;10;
73623;PMS5003;61921;53.226;-1.296;2023-07-28T04:54:59;11;10;
73623;PMS5003;61921;53.226;-1.296;2023-07-28T04:57:24;9;8;
73623;PMS5003;61921;53.226;-1.296;2023-07-28T04:59:49;10;9;
73623;PMS5003;61921;53.226;-1.296;2023-07-28T05:02:14;8;8;
73623;PMS5003;61921;53.226;-1.296;2023-07-28T05:04:39;11;10;
73623;PMS5003;61921;53.226;-1.296;2023-07-28T05:07:05;14;12;
73623;PMS5003;61921;53.226;-1.296;2023-07-28T05:09:30;13;13;
73623;PMS5003;61921;53.226;-1.296;2023-07-28T05:11:56;10;9;
73623;PMS5003;61921;53.226;-1.296;2023-07-28T05:14:22;12;12;
73623;PMS5003;61921;53.226;-1.296;2023-07-28T05:16:46;12;11;
73623;PMS5003;61921;53.226;-1.296;2023-07-28T05:19:12;10;10;
73623;PMS5003;61921;53.226;-1.296;2023-07-28T05:21:37;17;14;
73623;PMS5003;61921;53.226;-1.296;2023-07-28T05:24:02;18;15;
73623;PMS5003;61921;53.226;-1.296;2023-07-28T05:26:27;33;30;
73623;PMS5003;61921;53.226;-1.296;2023-07-28T05:28:53;19;19;
73623;PMS5003;61921;53.226;-1.296;2023-07-28T05:31:18;22;21;
73623;PMS5003;61921;53.226;-1.296;2023-07-28T05:33:43;17;16;
73623;PMS5003;61921;53.226;-1.296;2023-07-28T05:36:09;20;16;
73623;PMS5003;61921;53.226;-1.296;2023-07-28T05:38:34;13;12;
73623;PMS5003;61921;53.226;-1.296;2023-07-28T05:41:00;11;11;
73623;PMS5003;61921;53.226;-1.296;2023-07-28T05:43:25;11;10;
73623;PMS5003;61921;53.226;-1.296;2023-07-28T05:45:50;10;10;
73623;PMS5003;61921;53.226;-1.296;2023-07-28T05:48:16;11;10;
73623;PMS5003;61921;53.226;-1.296;2023-07-28T05:50:41;10;9;
73623;PMS5003;61921;53.226;-1.296;2023-07-28T05:53:06;8;8;
73623;PMS5003;61921;53.226;-1.296;2023-07-28T05:55:31;8;8;
73623;PMS5003;61921;53.226;-1.296;2023-07-28T05:57:57;6;6;
73623;PMS5003;61921;53.226;-1.296;2023-07-28T06:00:22;12;12;
73623;PMS5003;61921;53.226;-1.296;2023-07-28T06:02:47;11;11;
73623;PMS5003;61921;53.226;-1.296;2023-07-28T06:05:12;12;12;
73623;PMS5003;61921;53.226;-1.296;2023-07-28T06:07:37;7;7;
73623;PMS5003;61921;53.226;-1.296;2023-07-28T06:10:02;10;10;
73623;PMS5003;61921;53.226;-1.296;2023-07-28T06:12:27;9;9;
73623;PMS5003;61921;53.226;-1.296;2023-07-28T06:14:53;10;9;
73623;PMS5003;61921;53.226;-1.296;2023-07-28T06:17:19;10;8;
73623;PMS5003;61921;53.226;-1.296;2023-07-28T06:19:44;9;9;
73623;PMS5003;61921;53.226;-1.296;2023-07-28T06:22:09;7;7;
73623;PMS5003;61921;53.226;-1.296;2023-07-28T06:24:34;10;8;
73623;PMS5003;61921;53.226;-1.296;2023-07-28T06:26:59;7;7;
73623;PMS5003;61921;53.226;-1.296;2023-07-28T06:29:24;10;9;
73623;PMS5003;61921;53.226;-1.296;2023-07-28T06:31:49;5;5;
73623;PMS5003;61921;53.226;-1.296;2023-07-28T06:34:15;6;6;
73623;PMS5003;61921;53.226;-1.296;2023-07-28T06:36:40;7;7;
73623;PMS5003;61921;53.226;-1.296;2023-07-28T06:39:05;8;8;
73623;PMS5003;61921;53.226;-1.296;2023-07-28T06:41:30;8;8;
73623;PMS5003;61921;53.226;-1.296;2023-07-28T06:43:56;11;8;
73623;PMS5003;61921;53.226;-1.296;2023-07-28T06:46:21;9;7;
73623;PMS5003;61921;53.226;-1.296;2023-07-28T06:48:46;10;10;
73623;PMS5003;61921;53.226;-1.296;2023-07-28T06:51:11;7;7;
73623;PMS5003;61921;53.226;-1.296;2023-07-28T06:53:36;7;7;
73623;PMS5003;61921;53.226;-1.296;2023-07-28T06:56:02;8;8;
73623;PMS5003;61921;53.226;-1.296;2023-07-28T06:58:26;9;8;
73623;PMS5003;61921;53.226;-1.296;2023-07-28T07:00:51;7;6;
73623;PMS5003;61921;53.226;-1.296;2023-07-28T07:03:16;9;9;
73623;PMS5003;61921;53.226;-1.296;2023-07-28T07:05:42;6;5;
73623;PMS5003;61921;53.226;-1.296;2023-07-28T07:08:08;7;7;
73623;PMS5003;61921;53.226;-1.296;2023-07-28T07:10:33;8;8;
73623;PMS5003;61921;53.226;-1.296;2023-07-28T07:12:58;9;8;
73623;PMS5003;61921;53.226;-1.296;2023-07-28T07:15:23;8;7;
73623;PMS5003;61921;53.226;-1.296;2023-07-28T07:17:48;7;7;
73623;PMS5003;61921;53.226;-1.296;2023-07-28T07:20:13;4;4;
73623;PMS5003;61921;53.226;-1.296;2023-07-28T07:22:38;6;6;
73623;PMS5003;61921;53.226;-1.296;2023-07-28T07:25:03;9;9;
73623;PMS5003;61921;53.226;-1.296;2023-07-28T07:27:28;8;8;
73623;PMS5003;61921;53.226;-1.296;2023-07-28T07:29:53;6;6;
73623;PMS5003;61921;53.226;-1.296;2023-07-28T07:32:18;6;6;
73623;PMS5003;61921;53.226;-1.296;2023-07-28T07:34:44;7;7;
73623;PMS5003;61921;53.226;-1.296;2023-07-28T07:37:09;7;7;
73623;PMS5003;61921;53.226;-1.296;2023-07-28T07:39:34;6;6;
73623;PMS5003;61921;53.226;-1.296;2023-07-28T07:41:59;8;8;
73623;PMS5003;61921;53.226;-1.296;2023-07-28T07:44:24;6;6;
73623;PMS5003;61921;53.226;-1.296;2023-07-28T07:46:49;6;6;
73623;PMS5003;61921;53.226;-1.296;2023-07-28T07:49:14;6;5;
73623;PMS5003;61921;53.226;-1.296;2023-07-28T07:51:39;5;5;
73623;PMS5003;61921;53.226;-1.296;2023-07-28T07:54:04;5;5;
73623;PMS5003;61921;53.226;-1.296;2023-07-28T07:56:29;7;7;
73623;PMS5003;61921;53.226;-1.296;2023-07-28T07:58:55;7;7;
73623;PMS5003;61921;53.226;-1.296;2023-07-28T08:01:19;6;6;
73623;PMS5003;61921;53.226;-1.296;2023-07-28T08:03:44;9;9;
73623;PMS5003;61921;53.226;-1.296;2023-07-28T08:06:10;8;8;
73623;PMS5003;61921;53.226;-1.296;2023-07-28T08:08:35;7;7;
73623;PMS5003;61921;53.226;-1.296;2023-07-28T08:11:00;7;5;
73623;PMS5003;61921;53.226;-1.296;2023-07-28T08:13:25;4;4;
73623;PMS5003;61921;53.226;-1.296;2023-07-28T08:15:50;7;6;
73623;PMS5003;61921;53.226;-1.296;2023-07-28T08:18:15;5;5;
73623;PMS5003;61921;53.226;-1.296;2023-07-28T08:20:40;4;3;
73623;PMS5003;61921;53.226;-1.296;2023-07-28T08:23:05;7;7;
73623;PMS5003;61921;53.226;-1.296;2023-07-28T08:25:30;4;4;
73623;PMS5003;61921;53.226;-1.296;2023-07-28T08:27:56;5;5;
73623;PMS5003;61921;53.226;-1.296;2023-07-28T08:30:21;7;7;
73623;PMS5003;61921;53.226;-1.296;2023-07-28T08:32:45;6;4;
73623;PMS5003;61921;53.226;-1.296;2023-07-28T08:35:11;4;4;
73623;PMS5003;61921;53.226;-1.296;2023-07-28T08:37:35;6;6;
73623;PMS5003;61921;53.226;-1.296;2023-07-28T08:40:01;4;4;
73623;PMS5003;61921;53.226;-1.296;2023-07-28T08:42:28;5;5;
73623;PMS5003;61921;53.226;-1.296;2023-07-28T08:44:51;4;4;
73623;PMS5003;61921;53.226;-1.296;2023-07-28T08:47:16;5;5;
73623;PMS5003;61921;53.226;-1.296;2023-07-28T08:49:41;4;4;
73623;PMS5003;61921;53.226;-1.296;2023-07-28T08:52:06;7;7;
73623;PMS5003;61921;53.226;-1.296;2023-07-28T08:54:31;4;4;
73623;PMS5003;61921;53.226;-1.296;2023-07-28T08:56:57;4;4;
73623;PMS5003;61921;53.226;-1.296;2023-07-28T08:59:21;6;6;
73623;PMS5003;61921;53.226;-1.296;2023-07-28T09:01:46;5;5;
73623;PMS5003;61921;53.226;-1.296;2023-07-28T09:04:11;5;5;
73623;PMS5003;61921;53.226;-1.296;2023-07-28T09:06:36;5;5;
73623;PMS5003;61921;53.226;-1.296;2023-07-28T09:09:01;4;4;
73623;PMS5003;61921;53.226;-1.296;2023-07-28T09:11:26;5;5;
73623;PMS5003;61921;53.226;-1.296;2023-07-28T09:13:53;5;5;
73623;PMS5003;61921;53.226;-1.296;2023-07-28T09:16:16;5;5;
73623;PMS5003;61921;53.226;-1.296;2023-07-28T09:18:41;4;4;
73623;PMS5003;61921;53.226;-1.296;2023-07-28T09:21:06;4;4;
73623;PMS5003;61921;53.226;-1.296;2023-07-28T09:23:32;4;4;
73623;PMS5003;61921;53.226;-1.296;2023-07-28T09:25:59;3;3;
73623;PMS5003;61921;53.226;-1.296;2023-07-28T09:28:22;3;3;
73623;PMS5003;61921;53.226;-1.296;2023-07-28T09:30:47;4;4;
73623;PMS5003;61921;53.226;-1.296;2023-07-28T09:33:12;5;3;
73623;PMS5003;61921;53.226;-1.296;2023-07-28T09:38:02;3;3;
73623;PMS5003;61921;53.226;-1.296;2023-07-28T09:40:27;3;3;
73623;PMS5003;61921;53.226;-1.296;2023-07-28T09:42:52;2;2;
73623;PMS5003;61921;53.226;-1.296;2023-07-28T09:45:18;2;2;
73623;PMS5003;61921;53.226;-1.296;2023-07-28T09:47:43;2;2;
73623;PMS5003;61921;53.226;-1.296;2023-07-28T09:50:08;2;2;
73623;PMS5003;61921;53.226;-1.296;2023-07-28T09:52:34;2;2;
73623;PMS5003;61921;53.226;-1.296;2023-07-28T09:54:58;2;2;
73623;PMS5003;61921;53.226;-1.296;2023-07-28T09:57:23;5;3;
73623;PMS5003;61921;53.226;-1.296;2023-07-28T09:59:48;2;2;
73623;PMS5003;61921;53.226;-1.296;2023-07-28T10:02:13;4;4;
73623;PMS5003;61921;53.226;-1.296;2023-07-28T10:04:38;5;2;
73623;PMS5003;61921;53.226;-1.296;2023-07-28T10:07:04;2;2;
73623;PMS5003;61921;53.226;-1.296;2023-07-28T10:09:29;1;1;
73623;PMS5003;61921;53.226;-1.296;2023-07-28T10:11:54;2;2;
73623;PMS5003;61921;53.226;-1.296;2023-07-28T10:14:25;2;2;
73623;PMS5003;61921;53.226;-1.296;2023-07-28T10:16:43;0;0;
73623;PMS5003;61921;53.226;-1.296;2023-07-28T10:19:08;3;3;
73623;PMS5003;61921;53.226;-1.296;2023-07-28T10:21:37;2;1;
73623;PMS5003;61921;53.226;-1.296;2023-07-28T10:23:58;1;1;
73623;PMS5003;61921;53.226;-1.296;2023-07-28T10:26:35;2;2;
73623;PMS5003;61921;53.226;-1.296;2023-07-28T10:28:48;1;1;
73623;PMS5003;61921;53.226;-1.296;2023-07-28T10:31:14;1;1;
73623;PMS5003;61921;53.226;-1.296;2023-07-28T10:33:39;1;1;
73623;PMS5003;61921;53.226;-1.296;2023-07-28T10:36:11;1;1;
73623;PMS5003;61921;53.226;-1.296;2023-07-28T10:38:31;1;1;
73623;PMS5003;61921;53.226;-1.296;2023-07-28T10:41:04;1;1;
73623;PMS5003;61921;53.226;-1.296;2023-07-28T10:43:19;0;0;
73623;PMS5003;61921;53.226;-1.296;2023-07-28T10:45:44;2;0;
73623;PMS5003;61921;53.226;-1.296;2023-07-28T10:48:09;2;2;
73623;PMS5003;61921;53.226;-1.296;2023-07-28T10:50:34;1;1;
73623;PMS5003;61921;53.226;-1.296;2023-07-28T10:52:59;2;2;
73623;PMS5003;61921;53.226;-1.296;2023-07-28T10:55:25;1;1;
73623;PMS5003;61921;53.226;-1.296;2023-07-28T10:57:49;1;1;
73623;PMS5003;61921;53.226;-1.296;2023-07-28T11:00:15;1;1;
73623;PMS5003;61921;53.226;-1.296;2023-07-28T11:02:41;2;2;
73623;PMS5003;61921;53.226;-1.296;2023-07-28T11:05:09;3;2;
73623;PMS5003;61921;53.226;-1.296;2023-07-28T11:07:29;0;0;
73623;PMS5003;61921;53.226;-1.296;2023-07-28T11:09:55;1;1;
73623;PMS5003;61921;53.226;-1.296;2023-07-28T11:12:20;1;1;
73623;PMS5003;61921;53.226;-1.296;2023-07-28T11:14:45;2;2;
73623;PMS5003;61921;53.226;-1.296;2023-07-28T11:17:10;4;2;
73623;PMS5003;61921;53.226;-1.296;2023-07-28T11:19:35;3;1;
73623;PMS5003;61921;53.226;-1.296;2023-07-28T11:22:00;1;1;
73623;PMS5003;61921;53.226;-1.296;2023-07-28T11:24:26;2;2;
73623;PMS5003;61921;53.226;-1.296;2023-07-28T11:26:51;3;3;
73623;PMS5003;61921;53.226;-1.296;2023-07-28T11:29:18;3;3;
73623;PMS5003;61921;53.226;-1.296;2023-07-28T11:31:43;2;2;
73623;PMS5003;61921;53.226;-1.296;2023-07-28T11:34:12;9;9;
73623;PMS5003;61921;53.226;-1.296;2023-07-28T11:36:34;3;3;
73623;PMS5003;61921;53.226;-1.296;2023-07-28T11:38:59;1;1;
73623;PMS5003;61921;53.226;-1.296;2023-07-28T11:41:24;2;2;
73623;PMS5003;61921;53.226;-1.296;2023-07-28T11:43:50;4;4;
73623;PMS5003;61921;53.226;-1.296;2023-07-28T11:48:40;1;1;
73623;PMS5003;61921;53.226;-1.296;2023-07-28T11:51:05;1;1;
73623;PMS5003;61921;53.226;-1.296;2023-07-28T11:53:32;2;2;
73623;PMS5003;61921;53.226;-1.296;2023-07-28T11:55:56;2;2;
73623;PMS5003;61921;53.226;-1.296;2023-07-28T11:58:21;2;1;
73623;PMS5003;61921;53.226;-1.296;2023-07-28T12:00:47;2;2;
73623;PMS5003;61921;53.226;-1.296;2023-07-28T12:03:13;2;2;
73623;PMS5003;61921;53.226;-1.296;2023-07-28T12:08:05;2;2;
73623;PMS5003;61921;53.226;-1.296;2023-07-28T12:10:29;1;1;
73623;PMS5003;61921;53.226;-1.296;2023-07-28T12:12:55;2;2;
73623;PMS5003;61921;53.226;-1.296;2023-07-28T12:15:22;1;1;
73623;PMS5003;61921;53.226;-1.296;2023-07-28T12:20:13;2;2;
73623;PMS5003;61921;53.226;-1.296;2023-07-28T12:22:39;4;3;
73623;PMS5003;61921;53.226;-1.296;2023-07-28T12:25:05;5;5;
73623;PMS5003;61921;53.226;-1.296;2023-07-28T12:27:30;2;2;
73623;PMS5003;61921;53.226;-1.296;2023-07-28T12:29:56;3;3;
73623;PMS5003;61921;53.226;-1.296;2023-07-28T12:32:22;3;2;
73623;PMS5003;61921;53.226;-1.296;2023-07-28T12:34:48;2;2;
73623;PMS5003;61921;53.226;-1.296;2023-07-28T12:37:14;2;2;
73623;PMS5003;61921;53.226;-1.296;2023-07-28T12:39:39;2;2;
73623;PMS5003;61921;53.226;-1.296;2023-07-28T12:42:05;2;2;
73623;PMS5003;61921;53.226;-1.296;2023-07-28T12:44:31;2;2;
73623;PMS5003;61921;53.226;-1.296;2023-07-28T12:46:57;1;1;
73623;PMS5003;61921;53.226;-1.296;2023-07-28T12:49:23;2;1;
73623;PMS5003;61921;53.226;-1.296;2023-07-28T12:51:49;3;3;
73623;PMS5003;61921;53.226;-1.296;2023-07-28T12:54:14;2;2;
73623;PMS5003;61921;53.226;-1.296;2023-07-28T12:56:40;3;2;
73623;PMS5003;61921;53.226;-1.296;2023-07-28T12:59:06;1;1;
73623;PMS5003;61921;53.226;-1.296;2023-07-28T13:01:32;2;2;
73623;PMS5003;61921;53.226;-1.296;2023-07-28T13:03:58;3;3;
73623;PMS5003;61921;53.226;-1.296;2023-07-28T13:06:23;0;0;
73623;PMS5003;61921;53.226;-1.296;2023-07-28T13:08:49;4;2;
73623;PMS5003;61921;53.226;-1.296;2023-07-28T13:11:15;3;3;
73623;PMS5003;61921;53.226;-1.296;2023-07-28T13:13:41;3;3;
73623;PMS5003;61921;53.226;-1.296;2023-07-28T13:16:07;3;3;
73623;PMS5003;61921;53.226;-1.296;2023-07-28T13:18:32;3;3;
73623;PMS5003;61921;53.226;-1.296;2023-07-28T13:20:59;2;2;
73623;PMS5003;61921;53.226;-1.296;2023-07-28T13:23:24;5;4;
73623;PMS5003;61921;53.226;-1.296;2023-07-28T13:25:50;4;4;
73623;PMS5003;61921;53.226;-1.296;2023-07-28T13:28:17;3;3;
73623;PMS5003;61921;53.226;-1.296;2023-07-28T13:30:42;3;3;
73623;PMS5003;61921;53.226;-1.296;2023-07-28T13:33:07;3;3;
73623;PMS5003;61921;53.226;-1.296;2023-07-28T13:35:33;6;4;
73623;PMS5003;61921;53.226;-1.296;2023-07-28T13:37:59;3;3;
73623;PMS5003;61921;53.226;-1.296;2023-07-28T13:40:25;3;3;
73623;PMS5003;61921;53.226;-1.296;2023-07-28T13:42:51;4;4;
73623;PMS5003;61921;53.226;-1.296;2023-07-28T13:45:17;5;4;
73623;PMS5003;61921;53.226;-1.296;2023-07-28T13:47:42;5;5;
73623;PMS5003;61921;53.226;-1.296;2023-07-28T13:50:08;4;3;
73623;PMS5003;61921;53.226;-1.296;2023-07-28T13:52:34;6;5;
73623;PMS5003;61921;53.226;-1.296;2023-07-28T13:55:00;4;4;
73623;PMS5003;61921;53.226;-1.296;2023-07-28T13:57:25;4;4;
73623;PMS5003;61921;53.226;-1.296;2023-07-28T13:59:51;4;4;
73623;PMS5003;61921;53.226;-1.296;2023-07-28T14:02:17;6;4;
73623;PMS5003;61921;53.226;-1.296;2023-07-28T14:04:43;4;3;
73623;PMS5003;61921;53.226;-1.296;2023-07-28T14:07:09;5;5;
73623;PMS5003;61921;53.226;-1.296;2023-07-28T14:09:34;5;3;
73623;PMS5003;61921;53.226;-1.296;2023-07-28T14:12:00;6;6;
73623;PMS5003;61921;53.226;-1.296;2023-07-28T14:14:25;13;11;
73623;PMS5003;61921;53.226;-1.296;2023-07-28T14:16:51;30;25;
73623;PMS5003;61921;53.226;-1.296;2023-07-28T14:19:17;3;3;
73623;PMS5003;61921;53.226;-1.296;2023-07-28T14:21:42;4;4;
73623;PMS5003;61921;53.226;-1.296;2023-07-28T14:24:08;5;5;
73623;PMS5003;61921;53.226;-1.296;2023-07-28T14:26:34;5;4;
73623;PMS5003;61921;53.226;-1.296;2023-07-28T14:29:00;3;3;
73623;PMS5003;61921;53.226;-1.296;2023-07-28T14:31:25;3;3;
73623;PMS5003;61921;53.226;-1.296;2023-07-28T14:33:51;3;3;
73623;PMS5003;61921;53.226;-1.296;2023-07-28T14:36:17;5;4;
73623;PMS5003;61921;53.226;-1.296;2023-07-28T14:38:43;5;4;
73623;PMS5003;61921;53.226;-1.296;2023-07-28T14:41:09;6;4;
73623;PMS5003;61921;53.226;-1.296;2023-07-28T14:43:35;4;4;
73623;PMS5003;61921;53.226;-1.296;2023-07-28T14:46:00;13;10;
73623;PMS5003;61921;53.226;-1.296;2023-07-28T14:48:26;4;4;
73623;PMS5003;61921;53.226;-1.296;2023-07-28T14:50:52;3;3;
73623;PMS5003;61921;53.226;-1.296;2023-07-28T14:55:43;3;3;
73623;PMS5003;61921;53.226;-1.296;2023-07-28T14:58:10;2;2;
73623;PMS5003;61921;53.226;-1.296;2023-07-28T15:00:35;3;3;
73623;PMS5003;61921;53.226;-1.296;2023-07-28T15:03:01;4;4;
73623;PMS5003;61921;53.226;-1.296;2023-07-28T15:05:26;3;3;
73623;PMS5003;61921;53.226;-1.296;2023-07-28T15:07:52;2;2;
73623;PMS5003;61921;53.226;-1.296;2023-07-28T15:10:18;4;4;
73623;PMS5003;61921;53.226;-1.296;2023-07-28T15:12:44;2;2;
73623;PMS5003;61921;53.226;-1.296;2023-07-28T15:15:10;4;4;
73623;PMS5003;61921;53.226;-1.296;2023-07-28T15:17:35;3;3;
73623;PMS5003;61921;53.226;-1.296;2023-07-28T15:20:01;4;4;
73623;PMS5003;61921;53.226;-1.296;2023-07-28T15:22:27;2;2;
73623;PMS5003;61921;53.226;-1.296;2023-07-28T15:24:53;5;4;
73623;PMS5003;61921;53.226;-1.296;2023-07-28T15:27:19;4;4;
73623;PMS5003;61921;53.226;-1.296;2023-07-28T15:29:44;2;2;
73623;PMS5003;61921;53.226;-1.296;2023-07-28T15:32:10;3;3;
73623;PMS5003;61921;53.226;-1.296;2023-07-28T15:34:36;5;5;
73623;PMS5003;61921;53.226;-1.296;2023-07-28T15:37:02;3;2;
73623;PMS5003;61921;53.226;-1.296;2023-07-28T15:39:28;2;2;
73623;PMS5003;61921;53.226;-1.296;2023-07-28T15:41:53;4;4;
73623;PMS5003;61921;53.226;-1.296;2023-07-28T15:44:19;3;3;
73623;PMS5003;61921;53.226;-1.296;2023-07-28T15:46:45;2;2;
73623;PMS5003;61921;53.226;-1.296;2023-07-28T15:49:11;4;4;
73623;PMS5003;61921;53.226;-1.296;2023-07-28T15:51:37;3;3;
73623;PMS5003;61921;53.226;-1.296;2023-07-28T15:54:03;2;2;
73623;PMS5003;61921;53.226;-1.296;2023-07-28T15:56:28;3;3;
73623;PMS5003;61921;53.226;-1.296;2023-07-28T15:58:54;2;2;
73623;PMS5003;61921;53.226;-1.296;2023-07-28T16:01:20;3;3;
73623;PMS5003;61921;53.226;-1.296;2023-07-28T16:03:46;3;3;
73623;PMS5003;61921;53.226;-1.296;2023-07-28T16:06:12;3;3;
73623;PMS5003;61921;53.226;-1.296;2023-07-28T16:08:37;1;1;
73623;PMS5003;61921;53.226;-1.296;2023-07-28T16:11:03;4;3;
73623;PMS5003;61921;53.226;-1.296;2023-07-28T16:13:29;4;4;
73623;PMS5003;61921;53.226;-1.296;2023-07-28T16:15:55;3;3;
73623;PMS5003;61921;53.226;-1.296;2023-07-28T16:18:21;2;2;
73623;PMS5003;61921;53.226;-1.296;2023-07-28T16:20:47;3;3;
73623;PMS5003;61921;53.226;-1.296;2023-07-28T16:23:12;4;4;
73623;PMS5003;61921;53.226;-1.296;2023-07-28T16:25:38;5;5;
73623;PMS5003;61921;53.226;-1.296;2023-07-28T16:28:04;3;3;
73623;PMS5003;61921;53.226;-1.296;2023-07-28T16:30:30;3;3;